sensor_id;sensor_type;location;lat;lon;timestamp;pressure;altitude;pressure_sealevel;temperature;humidity
51289;BME280;37372;52.294;5.152;2023-04-23T00:01:57;100757.09;;;6.79;94.46
51289;BME280;37372;52.294;5.152;2023-04-23T00:04:27;100760.69;;;6.80;94.63
51289;BME280;37372;52.294;5.152;2023-04-23T00:06:59;100750.38;;;6.82;94.83
51289;BME280;37372;52.294;5.152;2023-04-23T00:09:29;100751.03;;;6.77;94.39
51289;BME280;37372;52.294;5.152;2023-04-23T00:11:58;100748.09;;;6.79;94.91
51289;BME280;37372;52.294;5.152;2023-04-23T00:14:27;100748.31;;;6.71;94.24
51289;BME280;37372;52.294;5.152;2023-04-23T00:16:59;100745.13;;;6.67;94.11
51289;BME280;37372;52.294;5.152;2023-04-23T00:19:24;100747.25;;;6.65;94.46
51289;BME280;37372;52.294;5.152;2023-04-23T00:21:59;100746.19;;;6.66;94.96
51289;BME280;37372;52.294;5.152;2023-04-23T00:24:25;100748.69;;;6.68;94.82
51289;BME280;37372;52.294;5.152;2023-04-23T00:26:59;100734.44;;;6.66;94.54
51289;BME280;37372;52.294;5.152;2023-04-23T00:29:26;100739.91;;;6.66;94.70
51289;BME280;37372;52.294;5.152;2023-04-23T00:31:59;100747.47;;;6.64;95.00
51289;BME280;37372;52.294;5.152;2023-04-23T00:34:27;100740.53;;;6.61;94.59
51289;BME280;37372;52.294;5.152;2023-04-23T00:37:04;100739.69;;;6.61;94.66
51289;BME280;37372;52.294;5.152;2023-04-23T00:39:31;100735.69;;;6.63;94.95
51289;BME280;37372;52.294;5.152;2023-04-23T00:42:02;100730.25;;;6.63;95.01
51289;BME280;37372;52.294;5.152;2023-04-23T00:44:34;100725.66;;;6.64;94.98
51289;BME280;37372;52.294;5.152;2023-04-23T00:47:05;100727.31;;;6.65;94.72
51289;BME280;37372;52.294;5.152;2023-04-23T00:49:32;100730.88;;;6.65;94.83
51289;BME280;37372;52.294;5.152;2023-04-23T00:52:07;100727.72;;;6.68;94.93
51289;BME280;37372;52.294;5.152;2023-04-23T00:54:32;100713.06;;;6.69;94.66
51289;BME280;37372;52.294;5.152;2023-04-23T00:57:07;100714.75;;;6.70;95.03
51289;BME280;37372;52.294;5.152;2023-04-23T00:59:33;100710.31;;;6.69;94.57
51289;BME280;37372;52.294;5.152;2023-04-23T01:02:08;100710.75;;;6.66;94.50
51289;BME280;37372;52.294;5.152;2023-04-23T01:04:34;100707.19;;;6.66;94.78
51289;BME280;37372;52.294;5.152;2023-04-23T01:07:10;100704.88;;;6.63;94.99
51289;BME280;37372;52.294;5.152;2023-04-23T01:09:38;100701.75;;;6.59;94.73
51289;BME280;37372;52.294;5.152;2023-04-23T01:12:13;100701.13;;;6.64;95.02
51289;BME280;37372;52.294;5.152;2023-04-23T01:14:40;100689.78;;;6.60;95.16
51289;BME280;37372;52.294;5.152;2023-04-23T01:17:12;100692.72;;;6.65;95.05
51289;BME280;37372;52.294;5.152;2023-04-23T01:19:39;100695.84;;;6.69;95.14
51289;BME280;37372;52.294;5.152;2023-04-23T01:22:14;100694.63;;;6.71;95.05
51289;BME280;37372;52.294;5.152;2023-04-23T01:24:40;100684.56;;;6.72;94.83
51289;BME280;37372;52.294;5.152;2023-04-23T01:27:15;100684.78;;;6.77;95.32
51289;BME280;37372;52.294;5.152;2023-04-23T01:29:41;100686.44;;;6.78;94.94
51289;BME280;37372;52.294;5.152;2023-04-23T01:32:16;100682.22;;;6.82;95.10
51289;BME280;37372;52.294;5.152;2023-04-23T01:34:43;100683.28;;;6.88;95.05
51289;BME280;37372;52.294;5.152;2023-04-23T01:37:18;100682.22;;;6.89;94.77
51289;BME280;37372;52.294;5.152;2023-04-23T01:39:44;100674.91;;;6.96;95.11
51289;BME280;37372;52.294;5.152;2023-04-23T01:42:15;100667.34;;;6.98;94.67
51289;BME280;37372;52.294;5.152;2023-04-23T01:44:45;100673.63;;;6.98;94.70
51289;BME280;37372;52.294;5.152;2023-04-23T01:47:21;100665.03;;;6.95;94.44
51289;BME280;37372;52.294;5.152;2023-04-23T01:49:57;100663.16;;;7.02;95.29
51289;BME280;37372;52.294;5.152;2023-04-23T01:52:23;100666.06;;;7.00;94.48
51289;BME280;37372;52.294;5.152;2023-04-23T01:54:50;100663.16;;;7.02;94.66
51289;BME280;37372;52.294;5.152;2023-04-23T01:57:19;100674.91;;;7.02;94.60
51289;BME280;37372;52.294;5.152;2023-04-23T01:59:53;100665.66;;;7.03;94.69
51289;BME280;37372;52.294;5.152;2023-04-23T02:02:22;100658.53;;;7.09;94.53
51289;BME280;37372;52.294;5.152;2023-04-23T02:04:49;100662.09;;;7.10;94.70
51289;BME280;37372;52.294;5.152;2023-04-23T02:07:20;100658.53;;;7.09;94.36
51289;BME280;37372;52.294;5.152;2023-04-23T02:09:47;100651.59;;;7.06;94.36
51289;BME280;37372;52.294;5.152;2023-04-23T02:12:22;100655.97;;;7.07;94.88
51289;BME280;37372;52.294;5.152;2023-04-23T02:14:49;100647.41;;;7.04;94.13
51289;BME280;37372;52.294;5.152;2023-04-23T02:17:25;100639.22;;;7.04;94.33
51289;BME280;37372;52.294;5.152;2023-04-23T02:19:52;100644.47;;;7.05;94.76
51289;BME280;37372;52.294;5.152;2023-04-23T02:22:29;100641.50;;;7.07;94.37
51289;BME280;37372;52.294;5.152;2023-04-23T02:24:55;100640.25;;;7.10;94.54
51289;BME280;37372;52.294;5.152;2023-04-23T02:27:26;100644.66;;;7.11;94.36
51289;BME280;37372;52.294;5.152;2023-04-23T02:29:52;100640.44;;;7.15;94.59
51289;BME280;37372;52.294;5.152;2023-04-23T02:32:24;100638.34;;;7.17;94.48
51289;BME280;37372;52.294;5.152;2023-04-23T02:34:53;100638.13;;;7.18;94.52
51289;BME280;37372;52.294;5.152;2023-04-23T02:37:31;100625.56;;;7.17;94.30
51289;BME280;37372;52.294;5.152;2023-04-23T02:39:58;100629.72;;;7.20;94.72
51289;BME280;37372;52.294;5.152;2023-04-23T02:42:33;100625.53;;;7.24;94.18
51289;BME280;37372;52.294;5.152;2023-04-23T02:44:59;100629.13;;;7.11;94.17
51289;BME280;37372;52.294;5.152;2023-04-23T02:47:27;100632.72;;;7.05;94.07
51289;BME280;37372;52.294;5.152;2023-04-23T02:49:53;100625.38;;;6.99;94.03
51289;BME280;37372;52.294;5.152;2023-04-23T02:52:32;100615.31;;;6.93;93.79
51289;BME280;37372;52.294;5.152;2023-04-23T02:54:59;100625.38;;;6.92;94.38
51289;BME280;37372;52.294;5.152;2023-04-23T02:57:36;100625.81;;;6.96;94.39
51289;BME280;37372;52.294;5.152;2023-04-23T03:00:02;100627.69;;;7.02;94.56
51289;BME280;37372;52.294;5.152;2023-04-23T03:02:33;100632.28;;;7.08;94.25
51289;BME280;37372;52.294;5.152;2023-04-23T03:04:59;100627.69;;;7.09;94.24
51289;BME280;37372;52.294;5.152;2023-04-23T03:07:33;100630.19;;;7.10;93.78
51289;BME280;37372;52.294;5.152;2023-04-23T03:09:59;100633.75;;;7.11;93.52
51289;BME280;37372;52.294;5.152;2023-04-23T03:12:35;100633.97;;;7.16;94.02
51289;BME280;37372;52.294;5.152;2023-04-23T03:15:02;100635.84;;;7.15;93.84
51289;BME280;37372;52.294;5.152;2023-04-23T03:17:35;100630.81;;;7.12;93.58
51289;BME280;37372;52.294;5.152;2023-04-23T03:20:02;100624.28;;;7.13;93.52
51289;BME280;37372;52.294;5.152;2023-04-23T03:25:11;100629.34;;;7.16;93.54
51289;BME280;37372;52.294;5.152;2023-04-23T03:27:39;100633.28;;;7.20;93.73
51289;BME280;37372;52.294;5.152;2023-04-23T03:30:06;100631.41;;;7.21;93.37
51289;BME280;37372;52.294;5.152;2023-04-23T03:32:37;100631.81;;;7.24;93.53
51289;BME280;37372;52.294;5.152;2023-04-23T03:35:03;100621.53;;;7.26;93.09
51289;BME280;37372;52.294;5.152;2023-04-23T03:37:38;100633.50;;;7.25;93.23
51289;BME280;37372;52.294;5.152;2023-04-23T03:40:06;100622.16;;;7.28;92.79
51289;BME280;37372;52.294;5.152;2023-04-23T03:42:40;100626.34;;;7.31;93.31
51289;BME280;37372;52.294;5.152;2023-04-23T03:45:06;100617.94;;;7.32;93.23
51289;BME280;37372;52.294;5.152;2023-04-23T03:47:40;100620.25;;;7.36;93.26
51289;BME280;37372;52.294;5.152;2023-04-23T03:50:07;100607.66;;;7.35;92.95
51289;BME280;37372;52.294;5.152;2023-04-23T03:52:40;100616.03;;;7.33;92.92
51289;BME280;37372;52.294;5.152;2023-04-23T03:55:06;100622.56;;;7.32;93.02
51289;BME280;37372;52.294;5.152;2023-04-23T03:57:42;100613.97;;;7.28;92.91
51289;BME280;37372;52.294;5.152;2023-04-23T04:00:08;100603.25;;;7.27;93.06
51289;BME280;37372;52.294;5.152;2023-04-23T04:02:40;100612.13;;;7.22;93.01
51289;BME280;37372;52.294;5.152;2023-04-23T04:05:11;100610.25;;;7.16;93.27
51289;BME280;37372;52.294;5.152;2023-04-23T04:07:40;100604.34;;;7.13;93.53
51289;BME280;37372;52.294;5.152;2023-04-23T04:10:06;100602.69;;;7.12;93.65
51289;BME280;37372;52.294;5.152;2023-04-23T04:12:32;100600.59;;;7.07;93.53
51289;BME280;37372;52.294;5.152;2023-04-23T04:14:58;100596.00;;;7.01;93.62
51289;BME280;37372;52.294;5.152;2023-04-23T04:17:23;100601.25;;;7.02;93.78
51289;BME280;37372;52.294;5.152;2023-04-23T04:19:49;100604.00;;;7.02;93.83
51289;BME280;37372;52.294;5.152;2023-04-23T04:22:14;100602.94;;;7.03;93.84
51289;BME280;37372;52.294;5.152;2023-04-23T04:24:40;100607.09;;;7.06;94.22
51289;BME280;37372;52.294;5.152;2023-04-23T04:27:06;100608.75;;;7.14;94.06
51289;BME280;37372;52.294;5.152;2023-04-23T04:29:32;100604.78;;;7.16;93.88
51289;BME280;37372;52.294;5.152;2023-04-23T04:31:59;100603.09;;;7.22;94.23
51289;BME280;37372;52.294;5.152;2023-04-23T04:34:25;100606.00;;;7.27;93.93
51289;BME280;37372;52.294;5.152;2023-04-23T04:36:52;100610.19;;;7.29;93.89
51289;BME280;37372;52.294;5.152;2023-04-23T04:39:19;100611.66;;;7.32;93.91
51289;BME280;37372;52.294;5.152;2023-04-23T04:41:46;100607.44;;;7.36;93.80
51289;BME280;37372;52.294;5.152;2023-04-23T04:44:12;100610.78;;;7.38;93.96
51289;BME280;37372;52.294;5.152;2023-04-23T04:46:41;100608.88;;;7.39;93.65
51289;BME280;37372;52.294;5.152;2023-04-23T04:49:07;100611.41;;;7.40;93.75
51289;BME280;37372;52.294;5.152;2023-04-23T04:51:39;100604.91;;;7.41;93.72
51289;BME280;37372;52.294;5.152;2023-04-23T04:54:05;100614.53;;;7.44;93.69
51289;BME280;37372;52.294;5.152;2023-04-23T04:56:32;100614.09;;;7.47;93.39
51289;BME280;37372;52.294;5.152;2023-04-23T04:58:59;100612.44;;;7.46;93.07
51289;BME280;37372;52.294;5.152;2023-04-23T05:01:27;100612.44;;;7.46;93.13
51289;BME280;37372;52.294;5.152;2023-04-23T05:03:56;100608.63;;;7.53;93.53
51289;BME280;37372;52.294;5.152;2023-04-23T05:06:22;100616.41;;;7.50;93.13
51289;BME280;37372;52.294;5.152;2023-04-23T05:08:50;100615.56;;;7.49;93.39
51289;BME280;37372;52.294;5.152;2023-04-23T05:11:17;100616.81;;;7.47;93.19
51289;BME280;37372;52.294;5.152;2023-04-23T05:13:43;100608.88;;;7.45;92.88
51289;BME280;37372;52.294;5.152;2023-04-23T05:16:09;100608.03;;;7.45;93.43
51289;BME280;37372;52.294;5.152;2023-04-23T05:18:38;100611.38;;;7.47;93.41
51289;BME280;37372;52.294;5.152;2023-04-23T05:21:04;100602.56;;;7.45;93.17
51289;BME280;37372;52.294;5.152;2023-04-23T05:23:32;100594.56;;;7.50;93.54
51289;BME280;37372;52.294;5.152;2023-04-23T05:26:02;100609.50;;;7.47;93.33
51289;BME280;37372;52.294;5.152;2023-04-23T05:28:29;100601.09;;;7.49;93.31
51289;BME280;37372;52.294;5.152;2023-04-23T05:30:56;100595.41;;;7.50;93.58
51289;BME280;37372;52.294;5.152;2023-04-23T05:33:22;100593.28;;;7.52;93.18
51289;BME280;37372;52.294;5.152;2023-04-23T05:35:47;100597.88;;;7.58;93.40
51289;BME280;37372;52.294;5.152;2023-04-23T05:38:13;100594.97;;;7.60;nan
51289;BME280;37372;52.294;5.152;2023-04-23T05:40:39;100609.00;;;7.64;93.45
51289;BME280;37372;52.294;5.152;2023-04-23T05:43:04;100615.28;;;7.64;93.47
51289;BME280;37372;52.294;5.152;2023-04-23T05:45:33;100613.81;;;7.68;93.31
51289;BME280;37372;52.294;5.152;2023-04-23T05:48:04;100619.00;;;7.76;93.01
51289;BME280;37372;52.294;5.152;2023-04-23T05:50:31;100624.22;;;7.84;92.97
51289;BME280;37372;52.294;5.152;2023-04-23T05:53:05;100616.16;;;7.96;93.06
51289;BME280;37372;52.294;5.152;2023-04-23T05:55:31;100620.94;;;8.07;92.66
51289;BME280;37372;52.294;5.152;2023-04-23T05:58:07;100608.91;;;8.15;91.72
51289;BME280;37372;52.294;5.152;2023-04-23T06:00:33;100597.03;;;8.28;92.28
51289;BME280;37372;52.294;5.152;2023-04-23T06:03:09;100604.59;;;8.32;91.39
51289;BME280;37372;52.294;5.152;2023-04-23T06:05:34;100602.66;;;8.39;91.71
51289;BME280;37372;52.294;5.152;2023-04-23T06:08:10;100607.00;;;8.47;91.09
51289;BME280;37372;52.294;5.152;2023-04-23T06:10:36;100593.75;;;8.51;90.71
51289;BME280;37372;52.294;5.152;2023-04-23T06:13:10;100583.66;;;8.51;90.71
51289;BME280;37372;52.294;5.152;2023-04-23T06:15:36;100585.88;;;8.61;90.48
51289;BME280;37372;52.294;5.152;2023-04-23T06:18:11;100582.84;;;8.69;90.97
51289;BME280;37372;52.294;5.152;2023-04-23T06:20:38;100586.56;;;8.75;90.43
51289;BME280;37372;52.294;5.152;2023-04-23T06:23:13;100575.78;;;8.80;90.47
51289;BME280;37372;52.294;5.152;2023-04-23T06:25:39;100586.06;;;8.84;90.08
51289;BME280;37372;52.294;5.152;2023-04-23T06:28:13;100585.53;;;8.94;89.66
51289;BME280;37372;52.294;5.152;2023-04-23T06:30:39;100588.06;;;8.95;89.81
51289;BME280;37372;52.294;5.152;2023-04-23T06:33:16;100583.97;;;9.05;89.85
51289;BME280;37372;52.294;5.152;2023-04-23T06:35:43;100579.41;;;9.17;89.58
51289;BME280;37372;52.294;5.152;2023-04-23T06:38:13;100573.00;;;9.23;89.30
51289;BME280;37372;52.294;5.152;2023-04-23T06:40:40;100579.00;;;9.32;88.49
51289;BME280;37372;52.294;5.152;2023-04-23T06:43:21;100572.38;;;9.39;88.30
51289;BME280;37372;52.294;5.152;2023-04-23T06:45:47;100575.28;;;9.44;88.70
51289;BME280;37372;52.294;5.152;2023-04-23T06:48:17;100572.22;;;9.53;88.37
51289;BME280;37372;52.294;5.152;2023-04-23T06:50:46;100583.47;;;9.63;87.90
51289;BME280;37372;52.294;5.152;2023-04-23T06:53:16;100572.91;;;9.66;87.38
51289;BME280;37372;52.294;5.152;2023-04-23T06:55:42;100566.50;;;9.72;87.46
51289;BME280;37372;52.294;5.152;2023-04-23T06:58:16;100570.19;;;9.78;86.97
51289;BME280;37372;52.294;5.152;2023-04-23T07:00:56;100571.69;;;9.92;87.05
51289;BME280;37372;52.294;5.152;2023-04-23T07:03:26;100560.63;;;9.99;87.94
51289;BME280;37372;52.294;5.152;2023-04-23T07:05:52;100562.19;;;10.07;87.09
51289;BME280;37372;52.294;5.152;2023-04-23T07:08:20;100555.53;;;10.14;87.12
51289;BME280;37372;52.294;5.152;2023-04-23T07:10:46;100551.47;;;10.17;86.48
51289;BME280;37372;52.294;5.152;2023-04-23T07:13:20;100553.44;;;10.28;86.42
51289;BME280;37372;52.294;5.152;2023-04-23T07:15:46;100554.66;;;10.44;86.24
51289;BME280;37372;52.294;5.152;2023-04-23T07:18:25;100552.63;;;10.51;85.79
51289;BME280;37372;52.294;5.152;2023-04-23T07:21:00;100557.28;;;10.62;83.67
51289;BME280;37372;52.294;5.152;2023-04-23T07:23:26;100555.28;;;10.69;83.95
51289;BME280;37372;52.294;5.152;2023-04-23T07:25:52;100557.41;;;10.79;83.27
51289;BME280;37372;52.294;5.152;2023-04-23T07:28:30;100551.53;;;10.87;83.67
51289;BME280;37372;52.294;5.152;2023-04-23T07:30:57;100557.13;;;11.04;81.84
51289;BME280;37372;52.294;5.152;2023-04-23T07:33:26;100555.69;;;11.13;81.23
51289;BME280;37372;52.294;5.152;2023-04-23T07:35:52;100556.03;;;11.17;82.17
51289;BME280;37372;52.294;5.152;2023-04-23T07:38:29;100550.28;;;11.30;80.86
51289;BME280;37372;52.294;5.152;2023-04-23T07:40:54;100547.66;;;11.35;82.19
51289;BME280;37372;52.294;5.152;2023-04-23T07:43:29;100547.75;;;11.40;81.12
51289;BME280;37372;52.294;5.152;2023-04-23T07:45:55;100547.66;;;11.35;81.77
51289;BME280;37372;52.294;5.152;2023-04-23T07:48:29;100531.59;;;11.44;81.71
51289;BME280;37372;52.294;5.152;2023-04-23T07:50:55;100528.38;;;11.47;80.35
51289;BME280;37372;52.294;5.152;2023-04-23T07:53:33;100549.03;;;11.49;80.35
51289;BME280;37372;52.294;5.152;2023-04-23T07:55:58;100532.75;;;11.59;80.07
51289;BME280;37372;52.294;5.152;2023-04-23T07:58:31;100529.59;;;11.68;80.47
51289;BME280;37372;52.294;5.152;2023-04-23T08:00:57;100531.47;;;11.79;77.94
51289;BME280;37372;52.294;5.152;2023-04-23T08:03:35;100531.94;;;11.87;78.84
51289;BME280;37372;52.294;5.152;2023-04-23T08:06:01;100537.00;;;11.96;76.93
51289;BME280;37372;52.294;5.152;2023-04-23T08:08:35;100542.94;;;12.04;77.97
51289;BME280;37372;52.294;5.152;2023-04-23T08:11:01;100540.78;;;12.06;78.52
51289;BME280;37372;52.294;5.152;2023-04-23T08:13:34;100539.91;;;12.17;78.02
51289;BME280;37372;52.294;5.152;2023-04-23T08:16:01;100538.78;;;12.35;78.34
51289;BME280;37372;52.294;5.152;2023-04-23T08:18:35;100539.72;;;12.41;77.27
51289;BME280;37372;52.294;5.152;2023-04-23T08:21:01;100537.22;;;12.56;75.36
51289;BME280;37372;52.294;5.152;2023-04-23T08:23:35;100529.81;;;12.57;75.66
51289;BME280;37372;52.294;5.152;2023-04-23T08:26:10;100531.72;;;12.56;76.23
51289;BME280;37372;52.294;5.152;2023-04-23T08:28:38;100527.22;;;12.50;77.02
51289;BME280;37372;52.294;5.152;2023-04-23T08:31:05;100529.19;;;12.55;75.42
51289;BME280;37372;52.294;5.152;2023-04-23T08:33:39;100523.03;;;12.47;75.61
51289;BME280;37372;52.294;5.152;2023-04-23T08:36:05;100521.78;;;12.55;75.30
51289;BME280;37372;52.294;5.152;2023-04-23T08:38:37;100516.03;;;12.57;74.82
51289;BME280;37372;52.294;5.152;2023-04-23T08:41:09;100518.00;;;12.61;74.55
51289;BME280;37372;52.294;5.152;2023-04-23T08:46:49;100517.53;;;12.64;75.29
51289;BME280;37372;52.294;5.152;2023-04-23T08:49:26;100519.00;;;12.72;75.50
51289;BME280;37372;52.294;5.152;2023-04-23T08:52:06;100520.00;;;12.83;75.23
51289;BME280;37372;52.294;5.152;2023-04-23T08:54:36;100519.16;;;12.82;73.96
51289;BME280;37372;52.294;5.152;2023-04-23T08:57:06;100532.75;;;12.89;73.64
51289;BME280;37372;52.294;5.152;2023-04-23T08:59:33;100521.47;;;12.90;74.25
51289;BME280;37372;52.294;5.152;2023-04-23T09:01:59;100509.97;;;13.15;73.05
51289;BME280;37372;52.294;5.152;2023-04-23T09:04:32;100523.66;;;13.27;72.41
51289;BME280;37372;52.294;5.152;2023-04-23T09:06:59;100513.31;;;13.39;71.65
51289;BME280;37372;52.294;5.152;2023-04-23T09:09:28;100524.53;;;13.33;71.07
51289;BME280;37372;52.294;5.152;2023-04-23T09:11:56;100520.03;;;13.26;71.27
51289;BME280;37372;52.294;5.152;2023-04-23T09:14:27;100517.41;;;13.37;70.75
51289;BME280;37372;52.294;5.152;2023-04-23T09:16:52;100527.78;;;13.51;70.43
51289;BME280;37372;52.294;5.152;2023-04-23T09:19:28;100518.66;;;13.73;69.45
51289;BME280;37372;52.294;5.152;2023-04-23T09:21:55;100518.66;;;13.73;70.07
51289;BME280;37372;52.294;5.152;2023-04-23T09:24:29;100514.88;;;13.84;70.01
51289;BME280;37372;52.294;5.152;2023-04-23T09:26:57;100519.06;;;13.87;68.99
51289;BME280;37372;52.294;5.152;2023-04-23T09:29:29;100513.41;;;14.03;69.73
51289;BME280;37372;52.294;5.152;2023-04-23T09:32:06;100505.59;;;14.22;68.30
51289;BME280;37372;52.294;5.152;2023-04-23T09:34:37;100512.78;;;14.23;67.33
51289;BME280;37372;52.294;5.152;2023-04-23T09:37:04;100509.28;;;14.33;66.48
51289;BME280;37372;52.294;5.152;2023-04-23T09:39:33;100506.97;;;14.20;66.25
51289;BME280;37372;52.294;5.152;2023-04-23T09:42:04;100495.66;;;14.21;66.56
51289;BME280;37372;52.294;5.152;2023-04-23T09:44:35;100499.28;;;14.27;67.41
51289;BME280;37372;52.294;5.152;2023-04-23T09:47:07;100496.63;;;14.37;65.77
51289;BME280;37372;52.294;5.152;2023-04-23T09:49:46;100494.53;;;14.49;65.42
51289;BME280;37372;52.294;5.152;2023-04-23T09:52:13;100493.59;;;14.39;65.11
51289;BME280;37372;52.294;5.152;2023-04-23T09:54:39;100496.34;;;14.39;65.94
51289;BME280;37372;52.294;5.152;2023-04-23T09:57:05;100501.41;;;14.47;65.26
51289;BME280;37372;52.294;5.152;2023-04-23T09:59:39;100502.38;;;14.30;65.47
51289;BME280;37372;52.294;5.152;2023-04-23T10:02:09;100492.34;;;14.19;66.08
51289;BME280;37372;52.294;5.152;2023-04-23T10:04:39;100494.66;;;14.32;64.60
51289;BME280;37372;52.294;5.152;2023-04-23T10:07:05;100496.47;;;14.54;65.25
51289;BME280;37372;52.294;5.152;2023-04-23T10:09:39;100497.47;;;14.80;63.96
51289;BME280;37372;52.294;5.152;2023-04-23T10:12:07;100497.84;;;14.99;62.84
51289;BME280;37372;52.294;5.152;2023-04-23T10:14:39;100501.22;;;15.11;63.89
51289;BME280;37372;52.294;5.152;2023-04-23T10:17:06;100498.75;;;15.20;64.44
51289;BME280;37372;52.294;5.152;2023-04-23T10:19:41;100497.94;;;15.19;62.37
51289;BME280;37372;52.294;5.152;2023-04-23T10:22:09;100492.97;;;15.26;62.39
51289;BME280;37372;52.294;5.152;2023-04-23T10:24:43;100491.88;;;15.22;61.11
51289;BME280;37372;52.294;5.152;2023-04-23T10:27:10;100497.56;;;15.00;61.92
51289;BME280;37372;52.294;5.152;2023-04-23T10:29:41;100501.78;;;15.08;62.10
51289;BME280;37372;52.294;5.152;2023-04-23T10:32:09;100492.34;;;15.04;61.80
51289;BME280;37372;52.294;5.152;2023-04-23T10:34:42;100485.22;;;15.18;61.96
51289;BME280;37372;52.294;5.152;2023-04-23T10:37:13;100479.72;;;15.23;60.57
51289;BME280;37372;52.294;5.152;2023-04-23T10:39:48;100472.00;;;15.20;61.79
51289;BME280;37372;52.294;5.152;2023-04-23T10:42:15;100468.38;;;15.20;60.16
51289;BME280;37372;52.294;5.152;2023-04-23T10:44:44;100463.19;;;15.38;61.07
51289;BME280;37372;52.294;5.152;2023-04-23T10:47:15;100459.91;;;15.57;59.95
51289;BME280;37372;52.294;5.152;2023-04-23T10:49:50;100455.84;;;15.75;59.12
51289;BME280;37372;52.294;5.152;2023-04-23T10:52:17;100449.97;;;15.61;58.46
51289;BME280;37372;52.294;5.152;2023-04-23T10:54:55;100449.75;;;15.78;58.63
51289;BME280;37372;52.294;5.152;2023-04-23T10:57:21;100448.13;;;15.92;58.03
51289;BME280;37372;52.294;5.152;2023-04-23T10:59:54;100450.88;;;16.17;57.77
51289;BME280;37372;52.294;5.152;2023-04-23T11:02:23;100443.38;;;16.38;57.05
51289;BME280;37372;52.294;5.152;2023-04-23T11:04:57;100443.38;;;16.38;56.28
51289;BME280;37372;52.294;5.152;2023-04-23T11:07:31;100438.66;;;16.29;55.68
51289;BME280;37372;52.294;5.152;2023-04-23T11:10:10;100437.00;;;16.33;54.87
51289;BME280;37372;52.294;5.152;2023-04-23T11:12:37;100428.72;;;16.02;56.01
51289;BME280;37372;52.294;5.152;2023-04-23T11:15:19;100431.25;;;16.04;55.43
51289;BME280;37372;52.294;5.152;2023-04-23T11:20:22;100423.72;;;16.40;55.10
51289;BME280;37372;52.294;5.152;2023-04-23T11:22:51;100418.72;;;16.47;54.33
51289;BME280;37372;52.294;5.152;2023-04-23T11:25:27;100420.69;;;16.21;54.24
51289;BME280;37372;52.294;5.152;2023-04-23T11:27:55;100417.34;;;16.34;53.84
51289;BME280;37372;52.294;5.152;2023-04-23T11:30:27;100420.94;;;16.40;53.92
51289;BME280;37372;52.294;5.152;2023-04-23T11:33:04;100410.41;;;16.52;54.03
51289;BME280;37372;52.294;5.152;2023-04-23T11:35:30;100410.69;;;16.45;54.43
51289;BME280;37372;52.294;5.152;2023-04-23T11:38:07;100397.34;;;16.73;53.97
51289;BME280;37372;52.294;5.152;2023-04-23T11:40:33;100396.19;;;16.84;55.05
51289;BME280;37372;52.294;5.152;2023-04-23T11:42:59;100392.91;;;16.77;53.89
51289;BME280;37372;52.294;5.152;2023-04-23T11:45:29;100389.06;;;16.52;55.28
51289;BME280;37372;52.294;5.152;2023-04-23T11:47:56;100374.56;;;16.86;54.36
51289;BME280;37372;52.294;5.152;2023-04-23T11:50:33;100369.72;;;17.12;53.81
51289;BME280;37372;52.294;5.152;2023-04-23T11:53:09;100370.94;;;17.40;52.17
51289;BME280;37372;52.294;5.152;2023-04-23T11:55:38;100361.53;;;17.36;52.69
51289;BME280;37372;52.294;5.152;2023-04-23T11:58:12;100356.47;;;17.48;51.28
51289;BME280;37372;52.294;5.152;2023-04-23T12:00:41;100356.19;;;17.45;51.01
51289;BME280;37372;52.294;5.152;2023-04-23T12:03:07;100372.31;;;17.43;50.40
51289;BME280;37372;52.294;5.152;2023-04-23T12:05:40;100357.28;;;17.49;48.99
51289;BME280;37372;52.294;5.152;2023-04-23T12:08:16;100353.88;;;17.18;50.50
51289;BME280;37372;52.294;5.152;2023-04-23T12:11:03;100354.72;;;17.18;49.19
51289;BME280;37372;52.294;5.152;2023-04-23T12:13:32;100348.34;;;17.18;47.45
51289;BME280;37372;52.294;5.152;2023-04-23T12:16:00;100350.59;;;17.16;47.61
51289;BME280;37372;52.294;5.152;2023-04-23T12:18:30;100343.78;;;17.37;48.26
51289;BME280;37372;52.294;5.152;2023-04-23T12:23:35;100338.34;;;17.61;47.94
51289;BME280;37372;52.294;5.152;2023-04-23T12:26:02;100335.72;;;17.41;48.39
51289;BME280;37372;52.294;5.152;2023-04-23T12:29:02;100330.91;;;17.91;47.75
51289;BME280;37372;52.294;5.152;2023-04-23T12:31:29;100318.47;;;17.83;47.75
51289;BME280;37372;52.294;5.152;2023-04-23T12:36:29;100318.75;;;17.81;46.77
51289;BME280;37372;52.294;5.152;2023-04-23T12:42:33;100312.28;;;17.57;47.80
51289;BME280;37372;52.294;5.152;2023-04-23T12:45:13;100309.63;;;17.42;48.92
51289;BME280;37372;52.294;5.152;2023-04-23T12:47:40;100306.00;;;17.46;48.88
51289;BME280;37372;52.294;5.152;2023-04-23T12:50:21;100295.84;;;17.66;47.06
51289;BME280;37372;52.294;5.152;2023-04-23T12:52:46;100294.31;;;17.49;47.14
51289;BME280;37372;52.294;5.152;2023-04-23T12:55:12;100298.22;;;17.48;48.53
51289;BME280;37372;52.294;5.152;2023-04-23T12:57:37;100290.16;;;17.52;48.44
51289;BME280;37372;52.294;5.152;2023-04-23T13:00:03;100292.78;;;17.67;49.52
51289;BME280;37372;52.294;5.152;2023-04-23T13:02:43;100287.84;;;17.93;48.79
51289;BME280;37372;52.294;5.152;2023-04-23T13:05:11;100293.00;;;17.76;48.68
51289;BME280;37372;52.294;5.152;2023-04-23T13:07:37;100286.16;;;17.63;49.43
51289;BME280;37372;52.294;5.152;2023-04-23T13:10:02;100283.91;;;17.36;49.48
51289;BME280;37372;52.294;5.152;2023-04-23T13:12:41;100282.94;;;17.51;49.83
51289;BME280;37372;52.294;5.152;2023-04-23T13:15:32;100271.00;;;17.50;49.63
51289;BME280;37372;52.294;5.152;2023-04-23T13:17:57;100266.06;;;17.13;49.73
51289;BME280;37372;52.294;5.152;2023-04-23T13:20:23;100259.69;;;17.13;49.45
51289;BME280;37372;52.294;5.152;2023-04-23T13:22:50;100257.19;;;17.11;48.87
51289;BME280;37372;52.294;5.152;2023-04-23T13:25:27;100255.38;;;16.96;49.77
51289;BME280;37372;52.294;5.152;2023-04-23T13:27:52;100248.09;;;17.05;49.87